Centralia, Washington
Current Conditions -  °F | °C
As of 10:55 AM on Sunday 23 Nov 2014 (Local Time) from KCLS Reporting Station
Haze Haze  
Wind Chill: 43°   Ceiling: 4000
Heat Index: 46°   Visibility: 5mi
Dew Point: 46°   Wind: 7mph
Humidity: 100%   Direction: NA
Pressure: 30.19"   Gusts: 15mph
Location:  46.73°N, 122.95°W
Report Text: KCLS 231855Z AUTO VRB06G13KT 5SM BR SCT031 BKN040 BKN050 08/08 A3019 RMK AO2
Loading
Personal Weather Stations






























Interactive Weather Map New forecast layout! Learn more

10-Day Weather Forecast

Advertisements
Track Severe Weather on mobile